Weather at Corning Municipal Airport

Public forecast

Using degrees Fahrenheit for public forecast. Weather courtesy of forecast.io.

Current aviation weather report (METAR) for Corning Municipal Airport

Retrieved 2021/07/24 17:35 UTC (21 minutes ago):

K4M9 241735Z AUTO 00000KT 9SM CLR 32/29 A3004 RMK AO2 PWINO

Closest aviation forecast (TAF) to Corning Municipal Airport

Closest forecast is Jonesboro Municipal Airport, 34.4 nm (63.7 km) S. Retrieved 2021/07/24 12:36 UTC (5 hours ago):

TAF KJBR 241135Z 2412/2512 24004KT P6SM SKC TEMPO 2412/2413 4SM BR FM241800 21006KT P6SM SCT050 FM250100 20003KT P6SM FEW250